Observations de surface / UK / EGYD

Québec | Canada | États-Unis | France | UK | Europe | Ailleurs

Affichage: Infos & localisation pour EGYD | Aide pour décoder les METARs

EGYD CRANWELL RAF -- UK
Raw surface observations for station EGYD
EGYD 211650Z AUTO 11006KT 6000 // OVC011/// 03/03 Q1026=
EGYD 211550Z AUTO 09004KT 8000 // OVC011/// 04/03 Q1026=
EGYD 211450Z 07003KT 9999 OVC013 04/03 Q1027 GRN NOSIG=
EGYD 211350Z 04002KT 9999 OVC015 04/03 Q1027 WHT TEMPO OVC014 GRN=
EGYD 211250Z 07002KT 9999 SCT009 OVC016 03/03 Q1028 GRN NOSIG=
EGYD 211150Z 08003KT 9999 BKN010 BKN016 03/03 Q1029 GRN NOSIG=
EGYD 211050Z 06002KT 9999 SCT013 OVC016 03/02 Q1030 GRN TEMPO FEW013 OVC016 WHT=
EGYD 210950Z 07002KT 8000 BR BKN014 03/02 Q1030 GRN TEMPO BKN015 WHT=
EGYD 210942Z 08003KT 8000 BR BKN010 BKN012 03/02 Q1030 GRN TEMPO BKN015 WHT=
EGYD 210850Z 09005KT 8000 BR BKN010 BKN012 02/02 Q1030 GRN NOSIG=
EGYD 210750Z 08003KT 7000 BR BKN010 01/01 Q1030 GRN NOSIG=
EGYD 210650Z 05006KT 7000 BR BKN012 01/01 Q1030 GRN=
EGYD 210550Z AUTO 04005KT 3500 // OVC010/// 02/02 Q1030=
EGYD 210450Z AUTO 06005KT 3200 // BKN010/// 02/02 Q1031=
EGYD 210350Z AUTO 05005KT 0400 // FEW002/// BKN006/// 01/01 Q1031=
EGYD 210250Z AUTO 06005KT 5000 // NCD 00/00 Q1031=
EGYD 210150Z AUTO 07004KT 7000 // NCD 00/00 Q1032=
EGYD 210050Z AUTO 07003KT 3500 // NCD M00/M00 Q1032=
EGYD 202350Z AUTO 04003KT 2900 // FEW240/// 01/01 Q1032=
EGYD 202250Z AUTO 02004KT 0250 // VV/// 01/01 Q1033=
EGYD 202150Z AUTO 02003KT 0100 // VV/// 02/02 Q1033=
EGYD 202050Z AUTO 02004KT 0150 // SCT001/// 01/01 Q1033=
EGYD 201950Z AUTO 06005KT 1300 // NCD 02/02 Q1033=
EGYD 201850Z AUTO 06005KT 3000 // NCD 02/02 Q1033=
EGYD 201750Z AUTO 06005KT 5000 // FEW006/// 03/02 Q1033=